sensor_id;sensor_type;location;lat;lon;timestamp;temperature;humidity
35445;DHT22;21562;49.476;6.086;2023-04-15T00:00:05;11.70;99.90
35445;DHT22;21562;49.476;6.086;2023-04-15T00:02:31;12.00;99.90
35445;DHT22;21562;49.476;6.086;2023-04-15T00:04:57;12.20;99.90
35445;DHT22;21562;49.476;6.086;2023-04-15T00:07:22;12.40;99.90
35445;DHT22;21562;49.476;6.086;2023-04-15T00:09:48;12.40;99.90
35445;DHT22;21562;49.476;6.086;2023-04-15T00:12:13;12.10;99.90
35445;DHT22;21562;49.476;6.086;2023-04-15T00:14:39;11.60;99.90
35445;DHT22;21562;49.476;6.086;2023-04-15T00:17:05;11.20;99.90
35445;DHT22;21562;49.476;6.086;2023-04-15T00:19:31;11.10;99.90
35445;DHT22;21562;49.476;6.086;2023-04-15T00:21:57;11.10;99.90
35445;DHT22;21562;49.476;6.086;2023-04-15T00:24:23;11.20;99.90
35445;DHT22;21562;49.476;6.086;2023-04-15T00:26:49;11.10;99.90
35445;DHT22;21562;49.476;6.086;2023-04-15T00:29:14;11.10;99.90
35445;DHT22;21562;49.476;6.086;2023-04-15T00:31:40;11.30;99.90
35445;DHT22;21562;49.476;6.086;2023-04-15T00:34:06;11.70;99.90
35445;DHT22;21562;49.476;6.086;2023-04-15T00:36:32;11.90;99.90
35445;DHT22;21562;49.476;6.086;2023-04-15T00:38:59;12.10;99.90
35445;DHT22;21562;49.476;6.086;2023-04-15T00:41:25;12.20;99.90
35445;DHT22;21562;49.476;6.086;2023-04-15T00:43:51;12.40;99.90
35445;DHT22;21562;49.476;6.086;2023-04-15T00:46:17;12.30;99.90
35445;DHT22;21562;49.476;6.086;2023-04-15T00:48:45;12.10;99.90
35445;DHT22;21562;49.476;6.086;2023-04-15T00:51:12;12.20;99.90
35445;DHT22;21562;49.476;6.086;2023-04-15T00:53:38;12.30;99.90
35445;DHT22;21562;49.476;6.086;2023-04-15T00:56:05;12.40;99.90
35445;DHT22;21562;49.476;6.086;2023-04-15T00:58:30;12.50;99.90
35445;DHT22;21562;49.476;6.086;2023-04-15T01:00:56;12.50;99.90
35445;DHT22;21562;49.476;6.086;2023-04-15T01:03:23;12.50;99.90
35445;DHT22;21562;49.476;6.086;2023-04-15T01:05:49;12.50;99.90
35445;DHT22;21562;49.476;6.086;2023-04-15T01:08:14;12.00;99.90
35445;DHT22;21562;49.476;6.086;2023-04-15T01:10:40;11.10;99.90
35445;DHT22;21562;49.476;6.086;2023-04-15T01:13:06;10.80;99.90
35445;DHT22;21562;49.476;6.086;2023-04-15T01:15:32;10.80;99.90
35445;DHT22;21562;49.476;6.086;2023-04-15T01:17:59;11.10;99.90
35445;DHT22;21562;49.476;6.086;2023-04-15T01:20:27;11.50;99.90
35445;DHT22;21562;49.476;6.086;2023-04-15T01:22:54;11.80;99.90
35445;DHT22;21562;49.476;6.086;2023-04-15T01:25:31;12.00;99.90
35445;DHT22;21562;49.476;6.086;2023-04-15T01:28:00;12.10;99.90
35445;DHT22;21562;49.476;6.086;2023-04-15T01:30:26;12.20;99.90
35445;DHT22;21562;49.476;6.086;2023-04-15T01:32:52;12.30;99.90
35445;DHT22;21562;49.476;6.086;2023-04-15T01:35:18;12.30;99.90
35445;DHT22;21562;49.476;6.086;2023-04-15T01:37:44;12.20;99.90
35445;DHT22;21562;49.476;6.086;2023-04-15T01:40:10;11.50;99.90
35445;DHT22;21562;49.476;6.086;2023-04-15T01:42:36;10.90;99.90
35445;DHT22;21562;49.476;6.086;2023-04-15T01:45:03;10.40;99.90
35445;DHT22;21562;49.476;6.086;2023-04-15T01:47:28;10.30;99.90
35445;DHT22;21562;49.476;6.086;2023-04-15T01:49:54;10.30;99.90
35445;DHT22;21562;49.476;6.086;2023-04-15T01:52:20;10.60;99.90
35445;DHT22;21562;49.476;6.086;2023-04-15T01:54:45;10.80;99.90
35445;DHT22;21562;49.476;6.086;2023-04-15T01:57:11;10.60;99.90
35445;DHT22;21562;49.476;6.086;2023-04-15T01:59:37;10.60;99.90
35445;DHT22;21562;49.476;6.086;2023-04-15T02:02:03;10.60;99.90
35445;DHT22;21562;49.476;6.086;2023-04-15T02:04:29;10.60;99.90
35445;DHT22;21562;49.476;6.086;2023-04-15T02:06:55;10.70;99.90
35445;DHT22;21562;49.476;6.086;2023-04-15T02:09:21;10.90;99.90
35445;DHT22;21562;49.476;6.086;2023-04-15T02:11:47;11.20;99.90
35445;DHT22;21562;49.476;6.086;2023-04-15T02:14:13;11.40;99.90
35445;DHT22;21562;49.476;6.086;2023-04-15T02:16:38;11.60;99.90
35445;DHT22;21562;49.476;6.086;2023-04-15T02:19:04;11.80;99.90
35445;DHT22;21562;49.476;6.086;2023-04-15T02:21:30;11.70;99.90
35445;DHT22;21562;49.476;6.086;2023-04-15T02:23:56;11.20;99.90
35445;DHT22;21562;49.476;6.086;2023-04-15T02:26:22;10.70;99.90
35445;DHT22;21562;49.476;6.086;2023-04-15T02:28:48;10.80;99.90
35445;DHT22;21562;49.476;6.086;2023-04-15T02:31:15;10.70;99.90
35445;DHT22;21562;49.476;6.086;2023-04-15T02:33:41;10.90;99.90
35445;DHT22;21562;49.476;6.086;2023-04-15T02:36:07;11.10;99.90
35445;DHT22;21562;49.476;6.086;2023-04-15T02:38:33;11.30;99.90
35445;DHT22;21562;49.476;6.086;2023-04-15T02:40:59;11.50;99.90
35445;DHT22;21562;49.476;6.086;2023-04-15T02:43:25;11.70;99.90
35445;DHT22;21562;49.476;6.086;2023-04-15T02:45:50;11.90;99.90
35445;DHT22;21562;49.476;6.086;2023-04-15T02:48:16;11.60;99.90
35445;DHT22;21562;49.476;6.086;2023-04-15T02:50:45;11.40;99.90
35445;DHT22;21562;49.476;6.086;2023-04-15T02:53:11;11.60;99.90
35445;DHT22;21562;49.476;6.086;2023-04-15T02:55:37;11.70;99.90
35445;DHT22;21562;49.476;6.086;2023-04-15T02:58:03;11.90;99.90
35445;DHT22;21562;49.476;6.086;2023-04-15T03:00:29;11.90;99.90
35445;DHT22;21562;49.476;6.086;2023-04-15T03:03:00;12.00;99.90
35445;DHT22;21562;49.476;6.086;2023-04-15T03:05:26;12.10;99.90
35445;DHT22;21562;49.476;6.086;2023-04-15T03:07:52;11.90;99.90
35445;DHT22;21562;49.476;6.086;2023-04-15T03:10:18;11.50;99.90
35445;DHT22;21562;49.476;6.086;2023-04-15T03:12:44;11.50;99.90
35445;DHT22;21562;49.476;6.086;2023-04-15T03:15:10;11.30;99.90
35445;DHT22;21562;49.476;6.086;2023-04-15T03:17:36;11.40;99.90
35445;DHT22;21562;49.476;6.086;2023-04-15T03:20:03;11.60;99.90
35445;DHT22;21562;49.476;6.086;2023-04-15T03:22:30;11.70;99.90
35445;DHT22;21562;49.476;6.086;2023-04-15T03:24:56;11.90;99.90
35445;DHT22;21562;49.476;6.086;2023-04-15T03:27:22;12.00;99.90
35445;DHT22;21562;49.476;6.086;2023-04-15T03:29:47;12.10;99.90
35445;DHT22;21562;49.476;6.086;2023-04-15T03:32:13;12.20;99.90
35445;DHT22;21562;49.476;6.086;2023-04-15T03:34:40;12.20;99.90
35445;DHT22;21562;49.476;6.086;2023-04-15T03:37:06;12.10;99.90
35445;DHT22;21562;49.476;6.086;2023-04-15T03:39:32;12.20;99.90
35445;DHT22;21562;49.476;6.086;2023-04-15T03:41:58;12.20;99.90
35445;DHT22;21562;49.476;6.086;2023-04-15T03:44:25;12.20;99.90
35445;DHT22;21562;49.476;6.086;2023-04-15T03:46:51;12.20;99.90
35445;DHT22;21562;49.476;6.086;2023-04-15T03:49:16;12.20;99.90
35445;DHT22;21562;49.476;6.086;2023-04-15T03:51:43;12.30;99.90
35445;DHT22;21562;49.476;6.086;2023-04-15T03:54:09;12.30;99.90
35445;DHT22;21562;49.476;6.086;2023-04-15T03:56:36;12.20;99.90
35445;DHT22;21562;49.476;6.086;2023-04-15T03:59:01;12.30;99.90
35445;DHT22;21562;49.476;6.086;2023-04-15T04:01:27;12.30;99.90
35445;DHT22;21562;49.476;6.086;2023-04-15T04:03:53;12.30;99.90
35445;DHT22;21562;49.476;6.086;2023-04-15T04:06:19;12.30;99.90
35445;DHT22;21562;49.476;6.086;2023-04-15T04:08:44;12.20;99.90
35445;DHT22;21562;49.476;6.086;2023-04-15T04:11:10;12.20;99.90
35445;DHT22;21562;49.476;6.086;2023-04-15T04:13:36;12.20;99.90
35445;DHT22;21562;49.476;6.086;2023-04-15T04:16:01;12.20;99.90
35445;DHT22;21562;49.476;6.086;2023-04-15T04:18:29;12.20;99.90
35445;DHT22;21562;49.476;6.086;2023-04-15T04:20:55;12.10;99.90
35445;DHT22;21562;49.476;6.086;2023-04-15T04:23:21;11.90;99.90
35445;DHT22;21562;49.476;6.086;2023-04-15T04:25:47;11.80;99.90
35445;DHT22;21562;49.476;6.086;2023-04-15T04:28:12;12.00;99.90
35445;DHT22;21562;49.476;6.086;2023-04-15T04:30:38;12.00;99.90
35445;DHT22;21562;49.476;6.086;2023-04-15T04:33:04;12.10;99.90
35445;DHT22;21562;49.476;6.086;2023-04-15T04:35:32;12.20;99.90
35445;DHT22;21562;49.476;6.086;2023-04-15T04:37:59;12.20;99.90
35445;DHT22;21562;49.476;6.086;2023-04-15T04:40:25;12.00;99.90
35445;DHT22;21562;49.476;6.086;2023-04-15T04:42:52;12.00;99.90
35445;DHT22;21562;49.476;6.086;2023-04-15T04:45:18;12.00;99.90
35445;DHT22;21562;49.476;6.086;2023-04-15T04:47:44;12.10;99.90
35445;DHT22;21562;49.476;6.086;2023-04-15T04:50:10;12.00;99.90
35445;DHT22;21562;49.476;6.086;2023-04-15T04:52:36;12.10;99.90
35445;DHT22;21562;49.476;6.086;2023-04-15T04:55:01;12.10;99.90
35445;DHT22;21562;49.476;6.086;2023-04-15T04:57:27;12.10;99.90
35445;DHT22;21562;49.476;6.086;2023-04-15T04:59:53;12.20;99.90
35445;DHT22;21562;49.476;6.086;2023-04-15T05:02:18;12.20;99.90
35445;DHT22;21562;49.476;6.086;2023-04-15T05:04:44;12.20;99.90
35445;DHT22;21562;49.476;6.086;2023-04-15T05:07:10;12.20;99.90
35445;DHT22;21562;49.476;6.086;2023-04-15T05:09:35;12.30;99.90
35445;DHT22;21562;49.476;6.086;2023-04-15T05:12:04;12.30;99.90
35445;DHT22;21562;49.476;6.086;2023-04-15T05:14:30;12.20;99.90
35445;DHT22;21562;49.476;6.086;2023-04-15T05:16:56;12.20;99.90
35445;DHT22;21562;49.476;6.086;2023-04-15T05:19:22;12.20;99.90
35445;DHT22;21562;49.476;6.086;2023-04-15T05:21:47;12.20;99.90
35445;DHT22;21562;49.476;6.086;2023-04-15T05:24:13;12.00;99.90
35445;DHT22;21562;49.476;6.086;2023-04-15T05:26:39;12.10;99.90
35445;DHT22;21562;49.476;6.086;2023-04-15T05:29:04;12.10;99.90
35445;DHT22;21562;49.476;6.086;2023-04-15T05:31:30;12.20;99.90
35445;DHT22;21562;49.476;6.086;2023-04-15T05:33:55;12.20;99.90
35445;DHT22;21562;49.476;6.086;2023-04-15T05:36:21;12.20;99.90
35445;DHT22;21562;49.476;6.086;2023-04-15T05:38:47;12.30;99.90
35445;DHT22;21562;49.476;6.086;2023-04-15T05:41:12;12.20;99.90
35445;DHT22;21562;49.476;6.086;2023-04-15T05:43:40;12.10;99.90
35445;DHT22;21562;49.476;6.086;2023-04-15T05:46:05;12.00;99.90
35445;DHT22;21562;49.476;6.086;2023-04-15T05:48:32;12.00;99.90
35445;DHT22;21562;49.476;6.086;2023-04-15T05:50:59;11.90;99.90
35445;DHT22;21562;49.476;6.086;2023-04-15T05:53:24;11.70;99.90
35445;DHT22;21562;49.476;6.086;2023-04-15T05:55:50;11.60;99.90
35445;DHT22;21562;49.476;6.086;2023-04-15T05:58:16;11.30;99.90
35445;DHT22;21562;49.476;6.086;2023-04-15T06:00:41;11.20;99.90
35445;DHT22;21562;49.476;6.086;2023-04-15T06:03:08;11.20;99.90
35445;DHT22;21562;49.476;6.086;2023-04-15T06:05:33;11.00;99.90
35445;DHT22;21562;49.476;6.086;2023-04-15T06:07:59;11.10;99.90
35445;DHT22;21562;49.476;6.086;2023-04-15T06:10:24;11.20;99.90
35445;DHT22;21562;49.476;6.086;2023-04-15T06:12:52;11.40;99.90
35445;DHT22;21562;49.476;6.086;2023-04-15T06:15:17;11.60;99.90
35445;DHT22;21562;49.476;6.086;2023-04-15T06:17:44;11.80;99.90
35445;DHT22;21562;49.476;6.086;2023-04-15T06:20:10;11.80;99.90
35445;DHT22;21562;49.476;6.086;2023-04-15T06:22:36;11.70;99.90
35445;DHT22;21562;49.476;6.086;2023-04-15T06:25:03;11.90;99.90
35445;DHT22;21562;49.476;6.086;2023-04-15T06:27:29;11.90;99.90
35445;DHT22;21562;49.476;6.086;2023-04-15T06:29:55;12.10;99.90
35445;DHT22;21562;49.476;6.086;2023-04-15T06:32:20;12.30;99.90
35445;DHT22;21562;49.476;6.086;2023-04-15T06:34:46;12.40;99.90
35445;DHT22;21562;49.476;6.086;2023-04-15T06:37:12;12.40;99.90
35445;DHT22;21562;49.476;6.086;2023-04-15T06:39:40;12.20;99.90
35445;DHT22;21562;49.476;6.086;2023-04-15T06:42:07;12.00;99.90
35445;DHT22;21562;49.476;6.086;2023-04-15T06:44:33;11.50;99.90
35445;DHT22;21562;49.476;6.086;2023-04-15T06:46:59;11.60;99.90
35445;DHT22;21562;49.476;6.086;2023-04-15T06:49:25;11.80;99.90
35445;DHT22;21562;49.476;6.086;2023-04-15T06:51:51;12.00;99.90
35445;DHT22;21562;49.476;6.086;2023-04-15T06:54:17;12.20;99.90
35445;DHT22;21562;49.476;6.086;2023-04-15T06:56:43;12.10;99.90
35445;DHT22;21562;49.476;6.086;2023-04-15T06:59:08;12.20;99.90
35445;DHT22;21562;49.476;6.086;2023-04-15T07:01:34;12.30;99.90
35445;DHT22;21562;49.476;6.086;2023-04-15T07:03:59;12.40;99.90
35445;DHT22;21562;49.476;6.086;2023-04-15T07:06:25;12.40;99.90
35445;DHT22;21562;49.476;6.086;2023-04-15T07:08:52;12.60;99.90
35445;DHT22;21562;49.476;6.086;2023-04-15T07:11:19;12.60;99.90
35445;DHT22;21562;49.476;6.086;2023-04-15T07:13:45;12.70;99.90
35445;DHT22;21562;49.476;6.086;2023-04-15T07:16:11;12.80;99.90
35445;DHT22;21562;49.476;6.086;2023-04-15T07:18:36;12.70;99.90
35445;DHT22;21562;49.476;6.086;2023-04-15T07:21:02;12.80;99.90
35445;DHT22;21562;49.476;6.086;2023-04-15T07:23:28;12.90;99.90
35445;DHT22;21562;49.476;6.086;2023-04-15T07:25:53;13.00;99.90
35445;DHT22;21562;49.476;6.086;2023-04-15T07:28:19;12.90;99.90
35445;DHT22;21562;49.476;6.086;2023-04-15T07:30:45;13.00;99.90
35445;DHT22;21562;49.476;6.086;2023-04-15T07:33:11;13.20;99.90
35445;DHT22;21562;49.476;6.086;2023-04-15T07:35:36;13.30;99.90
35445;DHT22;21562;49.476;6.086;2023-04-15T07:38:02;13.10;99.90
35445;DHT22;21562;49.476;6.086;2023-04-15T07:40:28;13.00;99.90
35445;DHT22;21562;49.476;6.086;2023-04-15T07:42:55;13.00;99.90
35445;DHT22;21562;49.476;6.086;2023-04-15T07:45:21;13.00;99.90
35445;DHT22;21562;49.476;6.086;2023-04-15T07:47:47;13.00;99.90
35445;DHT22;21562;49.476;6.086;2023-04-15T07:50:13;13.00;99.90
35445;DHT22;21562;49.476;6.086;2023-04-15T07:52:39;12.90;99.90
35445;DHT22;21562;49.476;6.086;2023-04-15T07:55:07;13.00;99.90
35445;DHT22;21562;49.476;6.086;2023-04-15T07:57:34;13.00;99.90
35445;DHT22;21562;49.476;6.086;2023-04-15T08:00:00;12.90;99.90
35445;DHT22;21562;49.476;6.086;2023-04-15T08:02:27;13.00;99.90
35445;DHT22;21562;49.476;6.086;2023-04-15T08:04:53;13.10;99.90
35445;DHT22;21562;49.476;6.086;2023-04-15T08:07:18;13.10;99.90
35445;DHT22;21562;49.476;6.086;2023-04-15T08:09:44;13.10;99.90
35445;DHT22;21562;49.476;6.086;2023-04-15T08:12:10;13.20;99.90
35445;DHT22;21562;49.476;6.086;2023-04-15T08:14:38;13.40;99.90
35445;DHT22;21562;49.476;6.086;2023-04-15T08:17:04;13.60;99.90
35445;DHT22;21562;49.476;6.086;2023-04-15T08:19:30;13.20;99.90
35445;DHT22;21562;49.476;6.086;2023-04-15T08:21:55;13.00;99.90
35445;DHT22;21562;49.476;6.086;2023-04-15T08:24:22;12.60;99.90
35445;DHT22;21562;49.476;6.086;2023-04-15T08:26:48;12.80;99.90
35445;DHT22;21562;49.476;6.086;2023-04-15T08:29:14;13.10;99.90
35445;DHT22;21562;49.476;6.086;2023-04-15T08:31:40;13.10;99.90
35445;DHT22;21562;49.476;6.086;2023-04-15T08:34:06;13.20;99.90
35445;DHT22;21562;49.476;6.086;2023-04-15T08:36:31;13.30;99.90
35445;DHT22;21562;49.476;6.086;2023-04-15T08:38:58;13.40;99.90
35445;DHT22;21562;49.476;6.086;2023-04-15T08:41:26;13.60;99.90
35445;DHT22;21562;49.476;6.086;2023-04-15T08:44:00;13.90;99.90
35445;DHT22;21562;49.476;6.086;2023-04-15T08:46:29;13.90;99.90
35445;DHT22;21562;49.476;6.086;2023-04-15T08:48:56;13.90;99.90
35445;DHT22;21562;49.476;6.086;2023-04-15T08:51:22;14.00;99.90
35445;DHT22;21562;49.476;6.086;2023-04-15T08:53:48;14.00;99.90
35445;DHT22;21562;49.476;6.086;2023-04-15T08:56:15;13.80;99.90
35445;DHT22;21562;49.476;6.086;2023-04-15T08:58:44;13.70;99.90
35445;DHT22;21562;49.476;6.086;2023-04-15T09:01:11;13.60;99.90
35445;DHT22;21562;49.476;6.086;2023-04-15T09:03:38;13.50;99.90
35445;DHT22;21562;49.476;6.086;2023-04-15T09:06:04;13.70;99.90
35445;DHT22;21562;49.476;6.086;2023-04-15T09:08:31;13.90;99.90
35445;DHT22;21562;49.476;6.086;2023-04-15T09:10:57;13.90;99.90
35445;DHT22;21562;49.476;6.086;2023-04-15T09:13:22;14.20;99.90
35445;DHT22;21562;49.476;6.086;2023-04-15T09:15:48;14.30;99.90
35445;DHT22;21562;49.476;6.086;2023-04-15T09:18:26;14.50;99.90
35445;DHT22;21562;49.476;6.086;2023-04-15T09:20:53;14.60;99.90
35445;DHT22;21562;49.476;6.086;2023-04-15T09:23:18;15.00;99.90
35445;DHT22;21562;49.476;6.086;2023-04-15T09:25:44;15.30;99.90
35445;DHT22;21562;49.476;6.086;2023-04-15T09:28:10;15.50;99.90
35445;DHT22;21562;49.476;6.086;2023-04-15T09:30:36;15.80;99.90
35445;DHT22;21562;49.476;6.086;2023-04-15T09:33:02;15.90;98.30
35445;DHT22;21562;49.476;6.086;2023-04-15T09:35:33;15.80;95.60
35445;DHT22;21562;49.476;6.086;2023-04-15T09:38:03;15.80;93.50
35445;DHT22;21562;49.476;6.086;2023-04-15T09:40:40;15.70;92.20
35445;DHT22;21562;49.476;6.086;2023-04-15T09:43:07;15.80;93.40
35445;DHT22;21562;49.476;6.086;2023-04-15T09:45:34;16.10;92.60
35445;DHT22;21562;49.476;6.086;2023-04-15T09:48:21;16.30;92.80
35445;DHT22;21562;49.476;6.086;2023-04-15T09:50:48;16.40;88.60
35445;DHT22;21562;49.476;6.086;2023-04-15T09:53:21;16.60;90.40
35445;DHT22;21562;49.476;6.086;2023-04-15T09:55:52;16.70;88.60
35445;DHT22;21562;49.476;6.086;2023-04-15T09:58:29;16.80;89.60
35445;DHT22;21562;49.476;6.086;2023-04-15T10:00:57;17.00;91.40
35445;DHT22;21562;49.476;6.086;2023-04-15T10:03:31;17.30;90.70
35445;DHT22;21562;49.476;6.086;2023-04-15T10:05:59;17.20;87.20
35445;DHT22;21562;49.476;6.086;2023-04-15T10:08:27;17.30;87.10
35445;DHT22;21562;49.476;6.086;2023-04-15T10:10:54;17.10;84.80
35445;DHT22;21562;49.476;6.086;2023-04-15T10:13:25;17.00;86.20
35445;DHT22;21562;49.476;6.086;2023-04-15T10:16:00;17.40;85.60
35445;DHT22;21562;49.476;6.086;2023-04-15T10:18:27;16.50;80.60
35445;DHT22;21562;49.476;6.086;2023-04-15T10:20:53;16.70;83.00
35445;DHT22;21562;49.476;6.086;2023-04-15T10:23:20;16.90;82.50
35445;DHT22;21562;49.476;6.086;2023-04-15T10:25:51;17.20;81.20
35445;DHT22;21562;49.476;6.086;2023-04-15T10:28:19;17.30;81.30
35445;DHT22;21562;49.476;6.086;2023-04-15T10:30:45;17.40;79.20
35445;DHT22;21562;49.476;6.086;2023-04-15T10:33:12;17.50;76.20
35445;DHT22;21562;49.476;6.086;2023-04-15T10:35:38;17.40;73.90
35445;DHT22;21562;49.476;6.086;2023-04-15T10:41:17;17.90;72.20
35445;DHT22;21562;49.476;6.086;2023-04-15T10:43:53;18.10;70.90
35445;DHT22;21562;49.476;6.086;2023-04-15T10:46:33;18.20;73.80
35445;DHT22;21562;49.476;6.086;2023-04-15T10:49:09;18.40;71.60
35445;DHT22;21562;49.476;6.086;2023-04-15T10:51:46;18.40;70.60
35445;DHT22;21562;49.476;6.086;2023-04-15T10:56:51;18.70;66.20
35445;DHT22;21562;49.476;6.086;2023-04-15T10:59:17;18.60;64.90
35445;DHT22;21562;49.476;6.086;2023-04-15T11:01:57;18.30;63.50
35445;DHT22;21562;49.476;6.086;2023-04-15T11:04:53;18.30;63.10
35445;DHT22;21562;49.476;6.086;2023-04-15T11:13:00;19.00;63.50
35445;DHT22;21562;49.476;6.086;2023-04-15T11:15:35;18.60;62.00
35445;DHT22;21562;49.476;6.086;2023-04-15T11:18:15;18.70;65.00
35445;DHT22;21562;49.476;6.086;2023-04-15T11:20:52;18.90;65.00
35445;DHT22;21562;49.476;6.086;2023-04-15T11:23:40;19.20;65.50
35445;DHT22;21562;49.476;6.086;2023-04-15T11:26:11;19.60;64.50
35445;DHT22;21562;49.476;6.086;2023-04-15T11:28:41;18.80;62.30
35445;DHT22;21562;49.476;6.086;2023-04-15T11:33:44;18.90;64.80
35445;DHT22;21562;49.476;6.086;2023-04-15T11:36:11;19.10;64.10
35445;DHT22;21562;49.476;6.086;2023-04-15T11:38:37;19.50;64.80
35445;DHT22;21562;49.476;6.086;2023-04-15T11:41:06;19.60;63.70
35445;DHT22;21562;49.476;6.086;2023-04-15T11:43:32;19.40;62.70
35445;DHT22;21562;49.476;6.086;2023-04-15T11:46:01;19.20;63.70
35445;DHT22;21562;49.476;6.086;2023-04-15T11:51:04;18.90;62.20
35445;DHT22;21562;49.476;6.086;2023-04-15T11:53:46;19.00;63.70
35445;DHT22;21562;49.476;6.086;2023-04-15T11:56:21;18.80;62.00
35445;DHT22;21562;49.476;6.086;2023-04-15T11:58:51;18.60;63.50
35445;DHT22;21562;49.476;6.086;2023-04-15T12:01:17;18.50;63.70
35445;DHT22;21562;49.476;6.086;2023-04-15T12:03:47;18.80;64.90
35445;DHT22;21562;49.476;6.086;2023-04-15T12:06:23;18.80;65.20
35445;DHT22;21562;49.476;6.086;2023-04-15T12:09:12;18.80;64.90
35445;DHT22;21562;49.476;6.086;2023-04-15T12:11:46;18.30;66.00
35445;DHT22;21562;49.476;6.086;2023-04-15T12:14:31;18.20;65.00
35445;DHT22;21562;49.476;6.086;2023-04-15T12:17:04;17.90;65.90
35445;DHT22;21562;49.476;6.086;2023-04-15T12:19:38;18.00;66.30
35445;DHT22;21562;49.476;6.086;2023-04-15T12:22:14;18.50;64.30
35445;DHT22;21562;49.476;6.086;2023-04-15T12:24:42;18.70;63.80
35445;DHT22;21562;49.476;6.086;2023-04-15T12:27:13;18.70;62.90
35445;DHT22;21562;49.476;6.086;2023-04-15T12:29:40;18.60;63.50
35445;DHT22;21562;49.476;6.086;2023-04-15T12:32:11;18.60;64.50
35445;DHT22;21562;49.476;6.086;2023-04-15T12:34:41;18.50;64.00
35445;DHT22;21562;49.476;6.086;2023-04-15T12:37:08;18.60;65.90
35445;DHT22;21562;49.476;6.086;2023-04-15T12:39:37;19.00;66.00
35445;DHT22;21562;49.476;6.086;2023-04-15T12:42:03;19.20;65.40
35445;DHT22;21562;49.476;6.086;2023-04-15T12:44:29;19.60;64.90
35445;DHT22;21562;49.476;6.086;2023-04-15T12:46:55;19.90;60.00
35445;DHT22;21562;49.476;6.086;2023-04-15T12:49:22;19.80;61.10
35445;DHT22;21562;49.476;6.086;2023-04-15T12:51:50;20.10;60.10
35445;DHT22;21562;49.476;6.086;2023-04-15T12:54:16;20.40;61.30
35445;DHT22;21562;49.476;6.086;2023-04-15T12:56:43;20.30;60.80
35445;DHT22;21562;49.476;6.086;2023-04-15T12:59:09;20.30;59.50
35445;DHT22;21562;49.476;6.086;2023-04-15T13:01:34;20.00;59.70
35445;DHT22;21562;49.476;6.086;2023-04-15T13:04:00;19.40;58.30
35445;DHT22;21562;49.476;6.086;2023-04-15T13:06:26;19.50;58.00
35445;DHT22;21562;49.476;6.086;2023-04-15T13:08:53;19.60;59.70
35445;DHT22;21562;49.476;6.086;2023-04-15T13:11:21;19.90;59.90
35445;DHT22;21562;49.476;6.086;2023-04-15T13:13:46;20.00;57.70
35445;DHT22;21562;49.476;6.086;2023-04-15T13:16:12;19.50;58.60
35445;DHT22;21562;49.476;6.086;2023-04-15T13:18:38;19.40;57.30
35445;DHT22;21562;49.476;6.086;2023-04-15T13:21:03;19.40;58.20
35445;DHT22;21562;49.476;6.086;2023-04-15T13:23:32;19.60;57.70
35445;DHT22;21562;49.476;6.086;2023-04-15T13:25:57;19.90;58.80
35445;DHT22;21562;49.476;6.086;2023-04-15T13:28:23;20.00;58.00
35445;DHT22;21562;49.476;6.086;2023-04-15T13:30:49;19.70;58.10
35445;DHT22;21562;49.476;6.086;2023-04-15T13:33:16;20.20;58.10
35445;DHT22;21562;49.476;6.086;2023-04-15T13:35:42;20.10;58.30
35445;DHT22;21562;49.476;6.086;2023-04-15T13:38:07;19.60;57.60
35445;DHT22;21562;49.476;6.086;2023-04-15T13:40:33;19.80;58.20
35445;DHT22;21562;49.476;6.086;2023-04-15T13:42:58;19.90;57.30
35445;DHT22;21562;49.476;6.086;2023-04-15T13:45:25;20.10;58.60
35445;DHT22;21562;49.476;6.086;2023-04-15T13:47:51;20.00;57.10
35445;DHT22;21562;49.476;6.086;2023-04-15T13:50:17;19.60;57.90
35445;DHT22;21562;49.476;6.086;2023-04-15T13:52:42;19.40;58.60
35445;DHT22;21562;49.476;6.086;2023-04-15T13:55:09;19.40;59.00
35445;DHT22;21562;49.476;6.086;2023-04-15T13:57:34;19.40;58.50
35445;DHT22;21562;49.476;6.086;2023-04-15T14:00:01;19.40;57.70
35445;DHT22;21562;49.476;6.086;2023-04-15T14:02:27;19.40;57.10
35445;DHT22;21562;49.476;6.086;2023-04-15T14:04:52;19.30;57.30
35445;DHT22;21562;49.476;6.086;2023-04-15T14:07:18;19.60;56.60
35445;DHT22;21562;49.476;6.086;2023-04-15T14:09:43;19.80;55.80
35445;DHT22;21562;49.476;6.086;2023-04-15T14:12:09;20.10;56.10
35445;DHT22;21562;49.476;6.086;2023-04-15T14:14:35;20.20;55.60
35445;DHT22;21562;49.476;6.086;2023-04-15T14:17:02;19.60;56.30
35445;DHT22;21562;49.476;6.086;2023-04-15T14:19:29;19.90;56.40
35445;DHT22;21562;49.476;6.086;2023-04-15T14:21:55;20.00;56.00
35445;DHT22;21562;49.476;6.086;2023-04-15T14:24:21;19.50;55.00
35445;DHT22;21562;49.476;6.086;2023-04-15T14:26:46;19.30;55.10
35445;DHT22;21562;49.476;6.086;2023-04-15T14:29:12;19.30;56.30
35445;DHT22;21562;49.476;6.086;2023-04-15T14:31:38;19.60;56.40
35445;DHT22;21562;49.476;6.086;2023-04-15T14:34:04;19.60;55.80
35445;DHT22;21562;49.476;6.086;2023-04-15T14:36:30;19.90;55.30
35445;DHT22;21562;49.476;6.086;2023-04-15T14:38:56;19.60;54.50
35445;DHT22;21562;49.476;6.086;2023-04-15T14:41:22;19.80;54.70
35445;DHT22;21562;49.476;6.086;2023-04-15T14:43:48;20.30;54.90
35445;DHT22;21562;49.476;6.086;2023-04-15T14:46:14;20.40;54.50
35445;DHT22;21562;49.476;6.086;2023-04-15T14:48:39;19.20;54.30
35445;DHT22;21562;49.476;6.086;2023-04-15T14:51:05;18.70;55.70
35445;DHT22;21562;49.476;6.086;2023-04-15T14:53:31;18.70;55.50
35445;DHT22;21562;49.476;6.086;2023-04-15T14:55:57;19.50;56.00
35445;DHT22;21562;49.476;6.086;2023-04-15T14:58:22;20.20;55.10
35445;DHT22;21562;49.476;6.086;2023-04-15T15:00:48;20.10;54.30
35445;DHT22;21562;49.476;6.086;2023-04-15T15:03:14;20.00;55.00
35445;DHT22;21562;49.476;6.086;2023-04-15T15:05:41;19.80;55.10
35445;DHT22;21562;49.476;6.086;2023-04-15T15:08:07;19.30;55.50
35445;DHT22;21562;49.476;6.086;2023-04-15T15:10:34;19.40;57.10
35445;DHT22;21562;49.476;6.086;2023-04-15T15:13:07;19.70;55.50
35445;DHT22;21562;49.476;6.086;2023-04-15T15:15:34;19.60;55.50
35445;DHT22;21562;49.476;6.086;2023-04-15T15:18:00;19.80;56.40
35445;DHT22;21562;49.476;6.086;2023-04-15T15:20:26;19.90;55.30
35445;DHT22;21562;49.476;6.086;2023-04-15T15:22:51;19.80;55.50
35445;DHT22;21562;49.476;6.086;2023-04-15T15:25:17;19.60;55.60
35445;DHT22;21562;49.476;6.086;2023-04-15T15:27:43;19.40;55.80
35445;DHT22;21562;49.476;6.086;2023-04-15T15:30:09;19.60;55.60
35445;DHT22;21562;49.476;6.086;2023-04-15T15:32:35;19.40;55.10
35445;DHT22;21562;49.476;6.086;2023-04-15T15:35:02;19.30;55.50
35445;DHT22;21562;49.476;6.086;2023-04-15T15:37:29;19.10;55.90
35445;DHT22;21562;49.476;6.086;2023-04-15T15:39:55;19.00;57.20
35445;DHT22;21562;49.476;6.086;2023-04-15T15:42:21;19.20;56.30
35445;DHT22;21562;49.476;6.086;2023-04-15T15:44:48;19.60;56.60